sensor_id;sensor_type;location;lat;lon;timestamp;pressure;altitude;pressure_sealevel;temperature;humidity
38786;BME280;24535;45.508;12.252;2023-05-29T00:01:37;101329.72;;;23.64;47.77
38786;BME280;24535;45.508;12.252;2023-05-29T00:04:03;101328.06;;;23.63;47.99
38786;BME280;24535;45.508;12.252;2023-05-29T00:06:28;101330.91;;;23.61;48.09
38786;BME280;24535;45.508;12.252;2023-05-29T00:08:54;101330.25;;;23.59;47.73
38786;BME280;24535;45.508;12.252;2023-05-29T00:11:20;101333.78;;;23.60;48.26
38786;BME280;24535;45.508;12.252;2023-05-29T00:13:45;101333.97;;;23.58;48.08
38786;BME280;24535;45.508;12.252;2023-05-29T00:16:11;101329.56;;;23.57;47.99
38786;BME280;24535;45.508;12.252;2023-05-29T00:18:37;101326.25;;;23.55;48.06
38786;BME280;24535;45.508;12.252;2023-05-29T00:21:10;101330.78;;;23.55;48.28
38786;BME280;24535;45.508;12.252;2023-05-29T00:23:35;101330.78;;;23.55;48.19
38786;BME280;24535;45.508;12.252;2023-05-29T00:26:00;101324.56;;;23.54;48.82
38786;BME280;24535;45.508;12.252;2023-05-29T00:28:26;101325.41;;;23.55;48.17
38786;BME280;24535;45.508;12.252;2023-05-29T00:30:51;101322.88;;;23.53;48.02
38786;BME280;24535;45.508;12.252;2023-05-29T00:33:19;101323.88;;;23.52;48.28
38786;BME280;24535;45.508;12.252;2023-05-29T00:35:45;101325.06;;;23.50;48.00
38786;BME280;24535;45.508;12.252;2023-05-29T00:38:10;101319.22;;;23.46;48.76
38786;BME280;24535;45.508;12.252;2023-05-29T00:40:36;101328.47;;;23.43;48.23
38786;BME280;24535;45.508;12.252;2023-05-29T00:43:01;101319.72;;;23.41;48.50
38786;BME280;24535;45.508;12.252;2023-05-29T00:45:27;101324.25;;;23.41;48.36
38786;BME280;24535;45.508;12.252;2023-05-29T00:47:53;101325.28;;;23.40;48.82
38786;BME280;24535;45.508;12.252;2023-05-29T00:50:19;101326.28;;;23.39;48.82
38786;BME280;24535;45.508;12.252;2023-05-29T00:52:46;101334.50;;;23.37;48.80
38786;BME280;24535;45.508;12.252;2023-05-29T00:55:11;101327.47;;;23.36;48.65
38786;BME280;24535;45.508;12.252;2023-05-29T00:57:36;101327.66;;;23.35;48.73
38786;BME280;24535;45.508;12.252;2023-05-29T01:00:05;101328.47;;;23.35;49.77
38786;BME280;24535;45.508;12.252;2023-05-29T01:02:33;101328.66;;;23.34;48.88
38786;BME280;24535;45.508;12.252;2023-05-29T01:05:01;101329.66;;;23.33;48.72
38786;BME280;24535;45.508;12.252;2023-05-29T01:07:26;101335.22;;;23.31;48.81
38786;BME280;24535;45.508;12.252;2023-05-29T01:09:52;101332.69;;;23.30;48.73
38786;BME280;24535;45.508;12.252;2023-05-29T01:28:19;101335.88;;;23.25;49.84
38786;BME280;24535;45.508;12.252;2023-05-29T01:30:46;101344.97;;;23.24;49.48
38786;BME280;24535;45.508;12.252;2023-05-29T01:33:12;101343.94;;;23.25;49.40
38786;BME280;24535;45.508;12.252;2023-05-29T01:35:37;101346.63;;;23.25;49.36
38786;BME280;24535;45.508;12.252;2023-05-29T01:38:03;101339.59;;;23.24;49.25
38786;BME280;24535;45.508;12.252;2023-05-29T01:40:28;101334.22;;;23.24;49.55
38786;BME280;24535;45.508;12.252;2023-05-29T01:42:53;101332.53;;;23.23;49.17
38786;BME280;24535;45.508;12.252;2023-05-29T01:45:19;101340.41;;;23.25;49.48
38786;BME280;24535;45.508;12.252;2023-05-29T01:47:45;101333.38;;;23.24;49.33
38786;BME280;24535;45.508;12.252;2023-05-29T01:50:11;101332.34;;;23.25;49.11
38786;BME280;24535;45.508;12.252;2023-05-29T01:52:38;101329.66;;;23.25;49.16
38786;BME280;24535;45.508;12.252;2023-05-29T01:55:03;101329.66;;;23.25;49.04
38786;BME280;24535;45.508;12.252;2023-05-29T01:57:29;101330.03;;;23.22;49.28
38786;BME280;24535;45.508;12.252;2023-05-29T01:59:54;101328.50;;;23.19;49.34
38786;BME280;24535;45.508;12.252;2023-05-29T02:02:21;101326.84;;;23.18;49.39
38786;BME280;24535;45.508;12.252;2023-05-29T02:04:46;101321.47;;;23.18;49.30
38786;BME280;24535;45.508;12.252;2023-05-29T02:07:11;101326.00;;;23.17;49.24
38786;BME280;24535;45.508;12.252;2023-05-29T02:09:37;101330.50;;;23.17;49.27
38786;BME280;24535;45.508;12.252;2023-05-29T02:12:02;101321.63;;;23.16;49.50
38786;BME280;24535;45.508;12.252;2023-05-29T02:14:28;101314.56;;;23.15;49.37
38786;BME280;24535;45.508;12.252;2023-05-29T02:16:54;101319.94;;;23.15;49.36
38786;BME280;24535;45.508;12.252;2023-05-29T02:19:19;101319.94;;;23.15;49.33
38786;BME280;24535;45.508;12.252;2023-05-29T02:21:46;101317.25;;;23.15;49.20
38786;BME280;24535;45.508;12.252;2023-05-29T02:24:11;101316.25;;;23.16;49.18
38786;BME280;24535;45.508;12.252;2023-05-29T02:26:37;101315.41;;;23.16;49.36
38786;BME280;24535;45.508;12.252;2023-05-29T02:29:02;101313.72;;;23.15;49.35
38786;BME280;24535;45.508;12.252;2023-05-29T02:31:30;101310.34;;;23.13;49.30
38786;BME280;24535;45.508;12.252;2023-05-29T02:33:56;101315.72;;;23.13;49.59
38786;BME280;24535;45.508;12.252;2023-05-29T02:36:27;101305.16;;;23.11;49.44
38786;BME280;24535;45.508;12.252;2023-05-29T02:38:53;101306.19;;;23.10;49.05
38786;BME280;24535;45.508;12.252;2023-05-29T02:41:18;101309.72;;;23.11;49.11
38786;BME280;24535;45.508;12.252;2023-05-29T02:43:43;101305.34;;;23.10;49.25
38786;BME280;24535;45.508;12.252;2023-05-29T02:46:08;101310.88;;;23.08;49.35
38786;BME280;24535;45.508;12.252;2023-05-29T02:48:34;101314.41;;;23.09;49.41
38786;BME280;24535;45.508;12.252;2023-05-29T02:50:59;101316.09;;;23.10;49.24
38786;BME280;24535;45.508;12.252;2023-05-29T02:53:25;101315.41;;;23.08;49.47
38786;BME280;24535;45.508;12.252;2023-05-29T02:55:50;101313.75;;;23.07;49.30
38786;BME280;24535;45.508;12.252;2023-05-29T02:58:16;101311.88;;;23.07;49.14
38786;BME280;24535;45.508;12.252;2023-05-29T03:00:44;101308.56;;;23.05;49.40
38786;BME280;24535;45.508;12.252;2023-05-29T03:03:11;101296.94;;;23.05;49.68
38786;BME280;24535;45.508;12.252;2023-05-29T03:05:36;101312.06;;;23.06;49.50
38786;BME280;24535;45.508;12.252;2023-05-29T03:08:01;101309.53;;;23.04;49.11
38786;BME280;24535;45.508;12.252;2023-05-29T03:10:27;101307.03;;;23.03;49.42
38786;BME280;24535;45.508;12.252;2023-05-29T03:12:52;101305.34;;;23.02;49.27
38786;BME280;24535;45.508;12.252;2023-05-29T03:15:17;101298.97;;;23.03;49.49
38786;BME280;24535;45.508;12.252;2023-05-29T03:17:46;101304.16;;;23.04;49.22
38786;BME280;24535;45.508;12.252;2023-05-29T03:20:11;101308.69;;;23.04;49.16
38786;BME280;24535;45.508;12.252;2023-05-29T03:22:36;101299.63;;;23.05;49.57
38786;BME280;24535;45.508;12.252;2023-05-29T03:25:02;101300.50;;;23.05;49.18
38786;BME280;24535;45.508;12.252;2023-05-29T03:27:28;101301.13;;;23.07;49.18
38786;BME280;24535;45.508;12.252;2023-05-29T03:29:54;101301.97;;;23.08;49.13
38786;BME280;24535;45.508;12.252;2023-05-29T03:32:20;101297.28;;;23.10;49.08
38786;BME280;24535;45.508;12.252;2023-05-29T03:34:45;101306.00;;;23.12;49.48
38786;BME280;24535;45.508;12.252;2023-05-29T03:37:11;101308.69;;;23.12;49.39
38786;BME280;24535;45.508;12.252;2023-05-29T03:39:46;101307.66;;;23.13;49.07
38786;BME280;24535;45.508;12.252;2023-05-29T03:42:11;101303.31;;;23.12;49.22
38786;BME280;24535;45.508;12.252;2023-05-29T03:44:36;101303.31;;;23.12;49.27
38786;BME280;24535;45.508;12.252;2023-05-29T03:47:02;101305.16;;;23.11;48.96
38786;BME280;24535;45.508;12.252;2023-05-29T03:49:27;101307.66;;;23.13;48.93
38786;BME280;24535;45.508;12.252;2023-05-29T03:51:52;101306.69;;;23.14;49.10
38786;BME280;24535;45.508;12.252;2023-05-29T03:54:18;101313.72;;;23.15;48.89
38786;BME280;24535;45.508;12.252;2023-05-29T03:56:43;101308.34;;;23.15;49.09
38786;BME280;24535;45.508;12.252;2023-05-29T03:59:08;101313.03;;;23.21;50.22
38786;BME280;24535;45.508;12.252;2023-05-29T04:01:34;101314.38;;;23.25;49.78
38786;BME280;24535;45.508;12.252;2023-05-29T04:03:59;101314.03;;;23.28;49.42
38786;BME280;24535;45.508;12.252;2023-05-29T04:06:25;101319.25;;;23.30;49.93
38786;BME280;24535;45.508;12.252;2023-05-29T04:08:50;101318.88;;;23.33;49.17
38786;BME280;24535;45.508;12.252;2023-05-29T04:11:16;101317.91;;;23.34;49.59
38786;BME280;24535;45.508;12.252;2023-05-29T04:13:41;101317.53;;;23.37;48.82
38786;BME280;24535;45.508;12.252;2023-05-29T04:16:07;101318.03;;;23.40;49.13
38786;BME280;24535;45.508;12.252;2023-05-29T04:18:32;101318.88;;;23.41;48.98
38786;BME280;24535;45.508;12.252;2023-05-29T04:20:58;101317.00;;;23.41;48.59
38786;BME280;24535;45.508;12.252;2023-05-29T04:23:23;101321.41;;;23.42;48.94
38786;BME280;24535;45.508;12.252;2023-05-29T04:25:48;101323.06;;;23.43;49.08
38786;BME280;24535;45.508;12.252;2023-05-29T04:28:15;101327.28;;;23.46;49.09
38786;BME280;24535;45.508;12.252;2023-05-29T04:30:42;101329.78;;;23.48;48.98
38786;BME280;24535;45.508;12.252;2023-05-29T04:33:07;101335.66;;;23.51;49.27
38786;BME280;24535;45.508;12.252;2023-05-29T04:35:34;101339.19;;;23.52;48.81
38786;BME280;24535;45.508;12.252;2023-05-29T04:38:00;101340.72;;;23.54;49.04
38786;BME280;24535;45.508;12.252;2023-05-29T04:40:25;101334.31;;;23.55;48.90
38786;BME280;24535;45.508;12.252;2023-05-29T04:42:51;101336.66;;;23.58;49.30
38786;BME280;24535;45.508;12.252;2023-05-29T04:45:19;101337.16;;;23.62;48.74
38786;BME280;24535;45.508;12.252;2023-05-29T04:47:45;101342.03;;;23.66;49.33
38786;BME280;24535;45.508;12.252;2023-05-29T04:50:14;101348.75;;;23.71;48.92
38786;BME280;24535;45.508;12.252;2023-05-29T04:52:39;101351.94;;;23.74;49.05
38786;BME280;24535;45.508;12.252;2023-05-29T04:55:05;101346.03;;;23.79;49.56
38786;BME280;24535;45.508;12.252;2023-05-29T04:57:30;101353.72;;;23.82;48.94
38786;BME280;24535;45.508;12.252;2023-05-29T04:59:56;101338.91;;;23.86;48.70
38786;BME280;24535;45.508;12.252;2023-05-29T05:02:21;101347.31;;;23.91;49.20
38786;BME280;24535;45.508;12.252;2023-05-29T05:04:46;101338.72;;;23.96;49.09
38786;BME280;24535;45.508;12.252;2023-05-29T05:07:12;101345.59;;;23.98;48.81
38786;BME280;24535;45.508;12.252;2023-05-29T05:09:38;101344.06;;;24.04;49.30
38786;BME280;24535;45.508;12.252;2023-05-29T05:12:03;101338.16;;;24.08;49.40
38786;BME280;24535;45.508;12.252;2023-05-29T05:14:29;101336.78;;;24.12;48.63
38786;BME280;24535;45.508;12.252;2023-05-29T05:16:54;101339.97;;;24.16;48.75
38786;BME280;24535;45.508;12.252;2023-05-29T05:19:19;101344.81;;;24.21;49.22
38786;BME280;24535;45.508;12.252;2023-05-29T05:21:45;101339.91;;;24.24;48.67
38786;BME280;24535;45.508;12.252;2023-05-29T05:24:10;101335.84;;;24.28;48.92
38786;BME280;24535;45.508;12.252;2023-05-29T05:26:35;101337.19;;;24.32;49.01
38786;BME280;24535;45.508;12.252;2023-05-29T05:29:01;101343.88;;;24.36;48.86
38786;BME280;24535;45.508;12.252;2023-05-29T05:31:26;101342.53;;;24.40;48.24
38786;BME280;24535;45.508;12.252;2023-05-29T05:34:04;101339.50;;;24.44;48.39
38786;BME280;24535;45.508;12.252;2023-05-29T05:36:29;101332.06;;;24.46;48.69
38786;BME280;24535;45.508;12.252;2023-05-29T05:39:00;101342.69;;;24.47;48.46
38786;BME280;24535;45.508;12.252;2023-05-29T05:41:26;101343.31;;;24.49;48.36
38786;BME280;24535;45.508;12.252;2023-05-29T05:43:51;101339.25;;;24.53;48.42
38786;BME280;24535;45.508;12.252;2023-05-29T05:46:29;101334.97;;;24.59;48.90
38786;BME280;24535;45.508;12.252;2023-05-29T05:48:57;101342.38;;;24.65;48.75
38786;BME280;24535;45.508;12.252;2023-05-29T05:51:28;101330.84;;;24.71;48.57
38786;BME280;24535;45.508;12.252;2023-05-29T05:53:57;101335.53;;;24.77;48.55
38786;BME280;24535;45.508;12.252;2023-05-29T05:56:22;101335.81;;;24.82;48.56
38786;BME280;24535;45.508;12.252;2023-05-29T05:58:47;101334.28;;;24.88;47.97
38786;BME280;24535;45.508;12.252;2023-05-29T06:04:22;101340.78;;;24.94;47.95
38786;BME280;24535;45.508;12.252;2023-05-29T06:06:55;101339.75;;;24.95;47.94
38786;BME280;24535;45.508;12.252;2023-05-29T06:09:20;101336.06;;;24.96;47.95
38786;BME280;24535;45.508;12.252;2023-05-29T06:11:46;101341.06;;;24.99;47.76
38786;BME280;24535;45.508;12.252;2023-05-29T06:14:12;101337.72;;;24.97;47.32
38786;BME280;24535;45.508;12.252;2023-05-29T06:16:38;101335.31;;;25.02;47.35
38786;BME280;24535;45.508;12.252;2023-05-29T06:19:03;101338.84;;;25.02;46.96
38786;BME280;24535;45.508;12.252;2023-05-29T06:21:29;101332.63;;;25.02;46.84
38786;BME280;24535;45.508;12.252;2023-05-29T06:23:54;101333.66;;;25.01;46.53
38786;BME280;24535;45.508;12.252;2023-05-29T06:26:23;101332.63;;;25.02;46.42
38786;BME280;24535;45.508;12.252;2023-05-29T06:28:53;101339.88;;;25.01;46.65
38786;BME280;24535;45.508;12.252;2023-05-29T06:31:18;101334.28;;;25.03;46.73
38786;BME280;24535;45.508;12.252;2023-05-29T06:36:47;101337.13;;;25.09;46.35
38786;BME280;24535;45.508;12.252;2023-05-29T06:39:15;101326.06;;;25.19;46.20
38786;BME280;24535;45.508;12.252;2023-05-29T06:41:40;101326.66;;;25.29;46.14
38786;BME280;24535;45.508;12.252;2023-05-29T06:44:06;101324.69;;;25.38;45.59
38786;BME280;24535;45.508;12.252;2023-05-29T06:46:31;101328.69;;;25.42;45.11
38786;BME280;24535;45.508;12.252;2023-05-29T06:48:56;101332.91;;;25.45;45.17
38786;BME280;24535;45.508;12.252;2023-05-29T06:51:22;101334.38;;;25.47;45.31
38786;BME280;24535;45.508;12.252;2023-05-29T06:53:47;101335.41;;;25.46;45.36
38786;BME280;24535;45.508;12.252;2023-05-29T06:56:12;101337.91;;;25.48;45.36
38786;BME280;24535;45.508;12.252;2023-05-29T06:58:38;101338.56;;;25.50;45.58
38786;BME280;24535;45.508;12.252;2023-05-29T07:01:04;101338.38;;;25.51;45.13
38786;BME280;24535;45.508;12.252;2023-05-29T07:03:30;101341.75;;;25.53;44.96
38786;BME280;24535;45.508;12.252;2023-05-29T07:05:55;101340.81;;;25.61;45.88
38786;BME280;24535;45.508;12.252;2023-05-29T07:08:21;101340.66;;;25.77;45.17
38786;BME280;24535;45.508;12.252;2023-05-29T07:10:49;101348.44;;;26.02;45.00
38786;BME280;24535;45.508;12.252;2023-05-29T07:13:15;101344.94;;;26.23;44.32
38786;BME280;24535;45.508;12.252;2023-05-29T07:15:48;101345.06;;;26.36;43.59
38786;BME280;24535;45.508;12.252;2023-05-29T07:18:13;101345.81;;;26.45;43.43
38786;BME280;24535;45.508;12.252;2023-05-29T07:20:38;101351.03;;;26.46;43.68
38786;BME280;24535;45.508;12.252;2023-05-29T07:23:04;101351.03;;;26.46;43.40
38786;BME280;24535;45.508;12.252;2023-05-29T07:25:29;101355.13;;;26.42;43.93
38786;BME280;24535;45.508;12.252;2023-05-29T07:27:55;101360.06;;;26.38;43.45
38786;BME280;24535;45.508;12.252;2023-05-29T07:30:21;101356.72;;;26.36;43.94
38786;BME280;24535;45.508;12.252;2023-05-29T07:32:46;101361.47;;;26.34;43.46
38786;BME280;24535;45.508;12.252;2023-05-29T07:35:14;101360.81;;;26.32;43.42
38786;BME280;24535;45.508;12.252;2023-05-29T07:37:40;101362.06;;;26.30;43.90
38786;BME280;24535;45.508;12.252;2023-05-29T07:40:06;101356.72;;;26.36;44.07
38786;BME280;24535;45.508;12.252;2023-05-29T07:42:32;101365.75;;;26.65;44.49
38786;BME280;24535;45.508;12.252;2023-05-29T07:50:59;101369.25;;;28.47;40.11
38786;BME280;24535;45.508;12.252;2023-05-29T07:53:25;101368.25;;;28.95;40.00
38786;BME280;24535;45.508;12.252;2023-05-29T07:55:50;101374.31;;;29.37;40.56
38786;BME280;24535;45.508;12.252;2023-05-29T07:58:15;101369.88;;;29.75;39.09
38786;BME280;24535;45.508;12.252;2023-05-29T08:00:41;101376.63;;;30.11;39.34
38786;BME280;24535;45.508;12.252;2023-05-29T08:05:55;101380.25;;;30.82;38.93
38786;BME280;24535;45.508;12.252;2023-05-29T08:08:20;101375.03;;;31.05;37.08
38786;BME280;24535;45.508;12.252;2023-05-29T08:10:46;101370.09;;;31.20;37.30
38786;BME280;24535;45.508;12.252;2023-05-29T08:13:11;101373.09;;;31.37;36.96
38786;BME280;24535;45.508;12.252;2023-05-29T08:15:48;101372.13;;;31.50;36.73
38786;BME280;24535;45.508;12.252;2023-05-29T08:18:14;101374.97;;;31.55;36.16
38786;BME280;24535;45.508;12.252;2023-05-29T08:20:42;101377.03;;;31.60;35.88
38786;BME280;24535;45.508;12.252;2023-05-29T08:23:08;101379.94;;;31.65;36.64
38786;BME280;24535;45.508;12.252;2023-05-29T08:25:42;101377.78;;;31.67;35.80
38786;BME280;24535;45.508;12.252;2023-05-29T08:28:14;101372.72;;;31.70;37.14
38786;BME280;24535;45.508;12.252;2023-05-29T08:30:42;101381.66;;;31.77;35.52
38786;BME280;24535;45.508;12.252;2023-05-29T08:33:12;101371.97;;;31.82;33.67
38786;BME280;24535;45.508;12.252;2023-05-29T08:38:31;101367.97;;;32.03;35.40
38786;BME280;24535;45.508;12.252;2023-05-29T08:40:56;101372.97;;;32.06;34.45
38786;BME280;24535;45.508;12.252;2023-05-29T08:43:28;101366.69;;;32.05;34.72
38786;BME280;24535;45.508;12.252;2023-05-29T08:46:01;101366.00;;;32.10;34.97
38786;BME280;24535;45.508;12.252;2023-05-29T08:48:30;101370.13;;;32.12;34.79
38786;BME280;24535;45.508;12.252;2023-05-29T08:57:01;101378.31;;;32.12;34.06
38786;BME280;24535;45.508;12.252;2023-05-29T08:59:50;101375.25;;;32.09;34.78
38786;BME280;24535;45.508;12.252;2023-05-29T09:02:14;101374.03;;;32.05;34.54
38786;BME280;24535;45.508;12.252;2023-05-29T09:04:43;101379.19;;;31.94;33.94
38786;BME280;24535;45.508;12.252;2023-05-29T09:07:17;101375.94;;;31.86;34.19
38786;BME280;24535;45.508;12.252;2023-05-29T09:09:44;101376.41;;;31.76;33.76
38786;BME280;24535;45.508;12.252;2023-05-29T09:12:10;101395.06;;;31.61;34.07
38786;BME280;24535;45.508;12.252;2023-05-29T09:14:36;101387.25;;;31.46;34.35
38786;BME280;24535;45.508;12.252;2023-05-29T09:17:02;101387.16;;;31.34;34.50
38786;BME280;24535;45.508;12.252;2023-05-29T09:19:28;101396.69;;;31.18;35.08
38786;BME280;24535;45.508;12.252;2023-05-29T09:22:03;101385.53;;;31.01;34.59
38786;BME280;24535;45.508;12.252;2023-05-29T09:24:29;101390.25;;;30.88;35.19
38786;BME280;24535;45.508;12.252;2023-05-29T09:26:55;101392.84;;;30.76;35.46
38786;BME280;24535;45.508;12.252;2023-05-29T09:29:30;101394.56;;;30.64;35.69
38786;BME280;24535;45.508;12.252;2023-05-29T09:31:56;101398.03;;;30.46;36.04
38786;BME280;24535;45.508;12.252;2023-05-29T09:34:23;101390.13;;;30.38;35.45
38786;BME280;24535;45.508;12.252;2023-05-29T09:37:05;101388.94;;;30.27;35.58
38786;BME280;24535;45.508;12.252;2023-05-29T09:39:41;101385.22;;;30.15;35.87
38786;BME280;24535;45.508;12.252;2023-05-29T09:42:18;101381.91;;;30.06;36.06
38786;BME280;24535;45.508;12.252;2023-05-29T09:44:50;101390.50;;;29.96;36.76
38786;BME280;24535;45.508;12.252;2023-05-29T09:47:18;101383.22;;;29.90;36.87
38786;BME280;24535;45.508;12.252;2023-05-29T09:52:35;101391.63;;;29.75;36.59
38786;BME280;24535;45.508;12.252;2023-05-29T09:55:06;101387.88;;;29.70;36.82
38786;BME280;24535;45.508;12.252;2023-05-29T09:57:32;101392.06;;;29.66;36.50
38786;BME280;24535;45.508;12.252;2023-05-29T09:59:58;101391.44;;;29.57;36.49
38786;BME280;24535;45.508;12.252;2023-05-29T10:02:23;101391.44;;;29.50;36.76
38786;BME280;24535;45.508;12.252;2023-05-29T10:04:50;101383.94;;;29.46;37.25
38786;BME280;24535;45.508;12.252;2023-05-29T10:07:20;101392.28;;;29.38;37.09
38786;BME280;24535;45.508;12.252;2023-05-29T10:09:50;101381.66;;;29.29;36.54
38786;BME280;24535;45.508;12.252;2023-05-29T10:12:19;101385.84;;;29.25;36.24
38786;BME280;24535;45.508;12.252;2023-05-29T10:14:46;101383.72;;;29.21;36.91
38786;BME280;24535;45.508;12.252;2023-05-29T10:17:18;101378.31;;;29.14;36.80
38786;BME280;24535;45.508;12.252;2023-05-29T10:19:52;101376.44;;;29.08;36.84
38786;BME280;24535;45.508;12.252;2023-05-29T10:22:19;101378.34;;;29.01;36.62
38786;BME280;24535;45.508;12.252;2023-05-29T10:24:45;101374.16;;;28.98;36.74
38786;BME280;24535;45.508;12.252;2023-05-29T10:27:13;101383.50;;;28.96;37.32
38786;BME280;24535;45.508;12.252;2023-05-29T10:29:43;101364.31;;;28.91;37.20
38786;BME280;24535;45.508;12.252;2023-05-29T10:37:31;101365.34;;;28.83;38.07
38786;BME280;24535;45.508;12.252;2023-05-29T10:40:06;101361.56;;;28.84;38.29
38786;BME280;24535;45.508;12.252;2023-05-29T10:50:57;101355.13;;;28.78;37.50
38786;BME280;24535;45.508;12.252;2023-05-29T11:38:54;101333.81;;;28.49;36.17
38786;BME280;24535;45.508;12.252;2023-05-29T11:49:41;101326.69;;;28.48;35.54
38786;BME280;24535;45.508;12.252;2023-05-29T11:52:11;101323.81;;;28.49;35.46
38786;BME280;24535;45.508;12.252;2023-05-29T11:54:36;101320.03;;;28.50;36.35
38786;BME280;24535;45.508;12.252;2023-05-29T11:57:02;101316.91;;;28.47;35.71
38786;BME280;24535;45.508;12.252;2023-05-29T11:59:30;101314.00;;;28.48;35.56
38786;BME280;24535;45.508;12.252;2023-05-29T12:01:55;101316.47;;;28.43;36.47
38786;BME280;24535;45.508;12.252;2023-05-29T12:10:25;101301.44;;;28.34;37.20
38786;BME280;24535;45.508;12.252;2023-05-29T12:13:03;101315.19;;;28.32;37.08
38786;BME280;24535;45.508;12.252;2023-05-29T12:15:28;101302.66;;;28.31;37.07
38786;BME280;24535;45.508;12.252;2023-05-29T12:18:03;101313.72;;;28.30;37.15
38786;BME280;24535;45.508;12.252;2023-05-29T12:20:28;101311.00;;;28.30;36.57
38786;BME280;24535;45.508;12.252;2023-05-29T12:28:50;101307.25;;;28.24;37.27
38786;BME280;24535;45.508;12.252;2023-05-29T12:31:28;101306.81;;;28.21;37.64
38786;BME280;24535;45.508;12.252;2023-05-29T12:34:10;101305.34;;;28.18;37.91
38786;BME280;24535;45.508;12.252;2023-05-29T12:36:39;101302.63;;;28.18;37.14
38786;BME280;24535;45.508;12.252;2023-05-29T12:39:08;101304.13;;;28.21;37.58
38786;BME280;24535;45.508;12.252;2023-05-29T12:41:34;101306.00;;;28.20;37.22
38786;BME280;24535;45.508;12.252;2023-05-29T12:44:01;101305.78;;;28.22;37.83
38786;BME280;24535;45.508;12.252;2023-05-29T12:49:30;101302.63;;;28.18;37.84
38786;BME280;24535;45.508;12.252;2023-05-29T12:51:56;101297.22;;;28.18;38.28
38786;BME280;24535;45.508;12.252;2023-05-29T12:57:04;101294.28;;;28.13;38.47
38786;BME280;24535;45.508;12.252;2023-05-29T12:59:42;101289.94;;;28.12;38.37
38786;BME280;24535;45.508;12.252;2023-05-29T13:02:07;101286.56;;;28.10;38.34
38786;BME280;24535;45.508;12.252;2023-05-29T13:07:37;101292.81;;;28.10;38.62
38786;BME280;24535;45.508;12.252;2023-05-29T13:15:49;101277.63;;;28.09;38.66
38786;BME280;24535;45.508;12.252;2023-05-29T13:21:04;101270.50;;;28.02;38.76
38786;BME280;24535;45.508;12.252;2023-05-29T13:28:26;101261.13;;;27.98;39.27
38786;BME280;24535;45.508;12.252;2023-05-29T13:36:37;101263.59;;;27.99;39.13
38786;BME280;24535;45.508;12.252;2023-05-29T13:42:07;101263.41;;;27.94;39.31
38786;BME280;24535;45.508;12.252;2023-05-29T13:44:44;101266.09;;;27.94;39.51
38786;BME280;24535;45.508;12.252;2023-05-29T13:53:32;101252.56;;;27.88;39.61
38786;BME280;24535;45.508;12.252;2023-05-29T14:04:36;101247.53;;;27.84;39.14
38786;BME280;24535;45.508;12.252;2023-05-29T14:07:06;101232.53;;;27.82;39.57
38786;BME280;24535;45.508;12.252;2023-05-29T14:09:47;101238.78;;;27.82;38.23
38786;BME280;24535;45.508;12.252;2023-05-29T14:12:12;101235.06;;;27.83;39.17
38786;BME280;24535;45.508;12.252;2023-05-29T14:14:37;101239.59;;;27.83;38.65
38786;BME280;24535;45.508;12.252;2023-05-29T14:17:03;101237.94;;;27.82;39.16
38786;BME280;24535;45.508;12.252;2023-05-29T14:19:30;101241.69;;;27.81;39.30
38786;BME280;24535;45.508;12.252;2023-05-29T14:21:58;101238.16;;;27.80;39.58
38786;BME280;24535;45.508;12.252;2023-05-29T14:24:24;101241.69;;;27.81;39.53
38786;BME280;24535;45.508;12.252;2023-05-29T14:26:50;101232.75;;;27.80;38.21
38786;BME280;24535;45.508;12.252;2023-05-29T14:29:15;101231.28;;;27.84;38.79
38786;BME280;24535;45.508;12.252;2023-05-29T14:38:00;101234.00;;;27.84;38.96
38786;BME280;24535;45.508;12.252;2023-05-29T14:40:28;101229.00;;;27.81;39.47
38786;BME280;24535;45.508;12.252;2023-05-29T14:45:31;101227.13;;;27.82;39.21
38786;BME280;24535;45.508;12.252;2023-05-29T14:47:56;101237.31;;;27.87;37.93
38786;BME280;24535;45.508;12.252;2023-05-29T14:58:35;101226.31;;;27.88;38.99
38786;BME280;24535;45.508;12.252;2023-05-29T15:01:00;101227.31;;;27.87;39.28
38786;BME280;24535;45.508;12.252;2023-05-29T15:06:24;101219.19;;;27.87;39.05
38786;BME280;24535;45.508;12.252;2023-05-29T15:09:07;101220.91;;;27.88;38.76
38786;BME280;24535;45.508;12.252;2023-05-29T15:11:36;101217.34;;;27.88;39.19
38786;BME280;24535;45.508;12.252;2023-05-29T15:14:04;101215.88;;;27.85;39.16
38786;BME280;24535;45.508;12.252;2023-05-29T15:18:59;101222.53;;;27.82;40.10
38786;BME280;24535;45.508;12.252;2023-05-29T15:21:24;101212.75;;;27.81;39.34
38786;BME280;24535;45.508;12.252;2023-05-29T15:27:12;101219.81;;;27.76;40.28
38786;BME280;24535;45.508;12.252;2023-05-29T15:29:41;101217.47;;;27.73;40.07
38786;BME280;24535;45.508;12.252;2023-05-29T15:32:06;101232.25;;;27.70;40.17
38786;BME280;24535;45.508;12.252;2023-05-29T15:46:38;101217.25;;;27.68;40.78
38786;BME280;24535;45.508;12.252;2023-05-29T16:01:06;101223.28;;;27.70;40.63
38786;BME280;24535;45.508;12.252;2023-05-29T16:03:37;101215.81;;;27.72;40.19
38786;BME280;24535;45.508;12.252;2023-05-29T16:16:51;101207.50;;;27.73;40.68
38786;BME280;24535;45.508;12.252;2023-05-29T16:19:16;101200.41;;;27.72;40.88
38786;BME280;24535;45.508;12.252;2023-05-29T16:21:42;101200.81;;;27.69;40.91
38786;BME280;24535;45.508;12.252;2023-05-29T16:24:10;101204.34;;;27.70;40.84
38786;BME280;24535;45.508;12.252;2023-05-29T16:26:36;101201.63;;;27.70;41.04
38786;BME280;24535;45.508;12.252;2023-05-29T16:29:01;101190.81;;;27.70;40.91